sensor_id;sensor_type;location;lat;lon;timestamp;pressure;altitude;pressure_sealevel;temperature;humidity
9261;BME280;4667;42.726;23.252;2023-08-06T00:00:54;94093.03;;;18.85;77.13
9261;BME280;4667;42.726;23.252;2023-08-06T00:03:21;94061.69;;;18.94;76.47
9261;BME280;4667;42.726;23.252;2023-08-06T00:05:48;94088.28;;;18.91;77.25
9261;BME280;4667;42.726;23.252;2023-08-06T00:08:15;94117.03;;;18.94;77.69
9261;BME280;4667;42.726;23.252;2023-08-06T00:10:43;94138.88;;;18.87;78.08
9261;BME280;4667;42.726;23.252;2023-08-06T00:13:10;94136.88;;;19.05;77.34
9261;BME280;4667;42.726;23.252;2023-08-06T00:15:36;94124.44;;;19.09;76.84
9261;BME280;4667;42.726;23.252;2023-08-06T00:18:03;94129.78;;;19.09;77.51
9261;BME280;4667;42.726;23.252;2023-08-06T00:20:30;94107.69;;;19.00;77.32
9261;BME280;4667;42.726;23.252;2023-08-06T00:22:56;94091.50;;;19.17;77.06
9261;BME280;4667;42.726;23.252;2023-08-06T00:25:23;94112.81;;;19.26;76.46
9261;BME280;4667;42.726;23.252;2023-08-06T00:27:51;94089.09;;;19.04;76.09
9261;BME280;4667;42.726;23.252;2023-08-06T00:30:18;94117.28;;;19.34;75.70
9261;BME280;4667;42.726;23.252;2023-08-06T00:32:45;94100.56;;;19.25;76.30
9261;BME280;4667;42.726;23.252;2023-08-06T00:35:12;94092.34;;;19.30;76.38
9261;BME280;4667;42.726;23.252;2023-08-06T00:37:39;94057.94;;;19.08;75.64
9261;BME280;4667;42.726;23.252;2023-08-06T00:40:07;94079.28;;;19.29;75.21
9261;BME280;4667;42.726;23.252;2023-08-06T00:42:34;94079.81;;;19.22;76.06
9261;BME280;4667;42.726;23.252;2023-08-06T00:45:03;94012.13;;;18.85;76.31
9261;BME280;4667;42.726;23.252;2023-08-06T00:47:29;94089.53;;;19.27;75.57
9261;BME280;4667;42.726;23.252;2023-08-06T00:49:57;94074.09;;;19.11;75.38
9261;BME280;4667;42.726;23.252;2023-08-06T00:52:24;94087.41;;;19.20;76.00
9261;BME280;4667;42.726;23.252;2023-08-06T00:54:51;94081.47;;;19.14;76.45
9261;BME280;4667;42.726;23.252;2023-08-06T00:57:18;94079.44;;;19.11;76.74
9261;BME280;4667;42.726;23.252;2023-08-06T00:59:46;94074.25;;;19.15;76.04
9261;BME280;4667;42.726;23.252;2023-08-06T01:02:15;94075.03;;;19.15;76.03
9261;BME280;4667;42.726;23.252;2023-08-06T01:04:42;94070.31;;;19.12;76.45
9261;BME280;4667;42.726;23.252;2023-08-06T01:07:19;94063.38;;;18.99;76.17
9261;BME280;4667;42.726;23.252;2023-08-06T01:09:56;94059.69;;;19.04;76.33
9261;BME280;4667;42.726;23.252;2023-08-06T01:12:33;94048.19;;;18.91;76.49
9261;BME280;4667;42.726;23.252;2023-08-06T01:15:07;93982.97;;;18.38;76.97
9261;BME280;4667;42.726;23.252;2023-08-06T01:17:40;94050.63;;;18.84;77.20
9261;BME280;4667;42.726;23.252;2023-08-06T01:20:08;94051.31;;;18.93;76.97
9261;BME280;4667;42.726;23.252;2023-08-06T01:22:36;94010.88;;;18.61;77.77
9261;BME280;4667;42.726;23.252;2023-08-06T01:25:04;94048.84;;;18.88;77.46
9261;BME280;4667;42.726;23.252;2023-08-06T01:27:34;94059.13;;;18.98;77.62
9261;BME280;4667;42.726;23.252;2023-08-06T01:30:08;94052.75;;;18.90;77.58
9261;BME280;4667;42.726;23.252;2023-08-06T01:32:40;94052.69;;;18.99;77.21
9261;BME280;4667;42.726;23.252;2023-08-06T01:35:10;94041.31;;;18.90;76.19
9261;BME280;4667;42.726;23.252;2023-08-06T01:37:39;94032.41;;;18.98;76.02
9261;BME280;4667;42.726;23.252;2023-08-06T01:40:09;94029.03;;;19.10;76.24
9261;BME280;4667;42.726;23.252;2023-08-06T01:42:37;94019.25;;;18.93;76.43
9261;BME280;4667;42.726;23.252;2023-08-06T01:45:05;94029.84;;;18.89;76.63
9261;BME280;4667;42.726;23.252;2023-08-06T01:47:32;94000.66;;;18.63;76.28
9261;BME280;4667;42.726;23.252;2023-08-06T01:49:58;94040.25;;;18.82;76.31
9261;BME280;4667;42.726;23.252;2023-08-06T01:52:25;94019.97;;;18.69;76.38
9261;BME280;4667;42.726;23.252;2023-08-06T01:54:54;94036.03;;;18.81;76.87
9261;BME280;4667;42.726;23.252;2023-08-06T01:57:21;93956.41;;;18.21;77.21
9261;BME280;4667;42.726;23.252;2023-08-06T01:59:47;93998.28;;;18.62;76.59
9261;BME280;4667;42.726;23.252;2023-08-06T02:02:14;94017.50;;;18.97;76.89
9261;BME280;4667;42.726;23.252;2023-08-06T02:04:41;93999.69;;;19.01;77.11
9261;BME280;4667;42.726;23.252;2023-08-06T02:07:07;94013.50;;;19.03;77.13
9261;BME280;4667;42.726;23.252;2023-08-06T02:09:34;94004.00;;;18.93;76.77
9261;BME280;4667;42.726;23.252;2023-08-06T02:12:03;94015.72;;;19.01;75.94
9261;BME280;4667;42.726;23.252;2023-08-06T02:14:30;94002.72;;;19.00;76.45
9261;BME280;4667;42.726;23.252;2023-08-06T02:16:56;94007.38;;;19.03;76.10
9261;BME280;4667;42.726;23.252;2023-08-06T02:19:24;93950.19;;;18.70;75.59
9261;BME280;4667;42.726;23.252;2023-08-06T02:21:51;93857.97;;;18.07;75.90
9261;BME280;4667;42.726;23.252;2023-08-06T02:24:18;94036.91;;;19.06;76.44
9261;BME280;4667;42.726;23.252;2023-08-06T02:26:44;94039.97;;;18.96;77.08
9261;BME280;4667;42.726;23.252;2023-08-06T02:29:14;94050.88;;;18.91;77.73
9261;BME280;4667;42.726;23.252;2023-08-06T02:31:41;94043.41;;;18.84;78.88
9261;BME280;4667;42.726;23.252;2023-08-06T02:34:07;94022.81;;;18.85;79.39
9261;BME280;4667;42.726;23.252;2023-08-06T02:36:34;93995.81;;;18.78;79.68
9261;BME280;4667;42.726;23.252;2023-08-06T02:39:01;94010.88;;;18.82;79.98
9261;BME280;4667;42.726;23.252;2023-08-06T02:41:28;94042.22;;;18.73;79.60
9261;BME280;4667;42.726;23.252;2023-08-06T02:43:55;94068.13;;;18.73;79.95
9261;BME280;4667;42.726;23.252;2023-08-06T02:46:23;94076.72;;;18.78;79.37
9261;BME280;4667;42.726;23.252;2023-08-06T02:48:50;94060.72;;;18.78;79.22
9261;BME280;4667;42.726;23.252;2023-08-06T02:51:16;94009.66;;;18.80;78.37
9261;BME280;4667;42.726;23.252;2023-08-06T02:53:43;94037.88;;;19.02;78.19
9261;BME280;4667;42.726;23.252;2023-08-06T02:56:10;93968.34;;;18.56;78.21
9261;BME280;4667;42.726;23.252;2023-08-06T02:58:36;94031.59;;;19.18;78.20
9261;BME280;4667;42.726;23.252;2023-08-06T03:01:05;93985.72;;;19.16;77.93
9261;BME280;4667;42.726;23.252;2023-08-06T03:03:34;93977.25;;;19.14;77.92
9261;BME280;4667;42.726;23.252;2023-08-06T03:06:01;93951.53;;;18.77;78.36
9261;BME280;4667;42.726;23.252;2023-08-06T03:08:28;93990.84;;;19.09;78.54
9261;BME280;4667;42.726;23.252;2023-08-06T03:10:55;93958.22;;;19.28;78.11
9261;BME280;4667;42.726;23.252;2023-08-06T03:13:21;93944.31;;;19.35;77.96
9261;BME280;4667;42.726;23.252;2023-08-06T03:15:54;93914.31;;;19.05;77.76
9261;BME280;4667;42.726;23.252;2023-08-06T03:18:22;93998.22;;;19.25;78.03
9261;BME280;4667;42.726;23.252;2023-08-06T03:20:50;93992.91;;;19.04;76.88
9261;BME280;4667;42.726;23.252;2023-08-06T03:23:16;93912.16;;;18.74;76.75
9261;BME280;4667;42.726;23.252;2023-08-06T03:25:52;93967.91;;;19.20;77.05
9261;BME280;4667;42.726;23.252;2023-08-06T03:28:19;93997.75;;;19.22;77.88
9261;BME280;4667;42.726;23.252;2023-08-06T03:30:47;93899.41;;;18.58;78.19
9261;BME280;4667;42.726;23.252;2023-08-06T03:33:14;93979.03;;;19.22;77.60
9261;BME280;4667;42.726;23.252;2023-08-06T03:35:41;93916.81;;;18.43;77.86
9261;BME280;4667;42.726;23.252;2023-08-06T03:38:09;94021.75;;;18.77;78.48
9261;BME280;4667;42.726;23.252;2023-08-06T03:40:36;94024.97;;;18.70;78.59
9261;BME280;4667;42.726;23.252;2023-08-06T03:43:03;94017.88;;;18.75;78.79
9261;BME280;4667;42.726;23.252;2023-08-06T03:45:29;94025.13;;;18.86;78.67
9261;BME280;4667;42.726;23.252;2023-08-06T03:47:56;94016.16;;;18.91;78.43
9261;BME280;4667;42.726;23.252;2023-08-06T03:50:23;94035.25;;;19.14;78.02
9261;BME280;4667;42.726;23.252;2023-08-06T03:52:49;94042.28;;;19.18;77.86
9261;BME280;4667;42.726;23.252;2023-08-06T03:55:18;93963.91;;;18.81;77.96
9261;BME280;4667;42.726;23.252;2023-08-06T03:57:44;94036.97;;;19.31;77.83
9261;BME280;4667;42.726;23.252;2023-08-06T04:00:13;93955.34;;;18.88;77.83
9261;BME280;4667;42.726;23.252;2023-08-06T04:02:39;94042.13;;;19.48;77.69
9261;BME280;4667;42.726;23.252;2023-08-06T04:05:07;94041.00;;;19.49;77.85
9261;BME280;4667;42.726;23.252;2023-08-06T04:07:34;94045.34;;;19.54;77.44
9261;BME280;4667;42.726;23.252;2023-08-06T04:10:02;94038.72;;;19.60;77.18
9261;BME280;4667;42.726;23.252;2023-08-06T04:12:31;94029.53;;;19.48;77.41
9261;BME280;4667;42.726;23.252;2023-08-06T04:14:58;93992.47;;;19.02;76.37
9261;BME280;4667;42.726;23.252;2023-08-06T04:17:25;93993.56;;;19.01;76.65
9261;BME280;4667;42.726;23.252;2023-08-06T04:19:53;94047.47;;;19.36;77.33
9261;BME280;4667;42.726;23.252;2023-08-06T04:22:21;94053.50;;;19.57;77.16
9261;BME280;4667;42.726;23.252;2023-08-06T04:24:48;94054.84;;;19.51;76.75
9261;BME280;4667;42.726;23.252;2023-08-06T04:27:15;94045.34;;;19.54;76.79
9261;BME280;4667;42.726;23.252;2023-08-06T04:29:43;94047.47;;;19.48;77.09
9261;BME280;4667;42.726;23.252;2023-08-06T04:32:10;94031.91;;;19.50;77.30
9261;BME280;4667;42.726;23.252;2023-08-06T04:34:37;93945.56;;;18.92;76.86
9261;BME280;4667;42.726;23.252;2023-08-06T04:37:04;94023.41;;;19.48;77.30
9261;BME280;4667;42.726;23.252;2023-08-06T04:39:31;94025.66;;;19.58;77.13
9261;BME280;4667;42.726;23.252;2023-08-06T04:41:58;94030.47;;;19.65;77.09
9261;BME280;4667;42.726;23.252;2023-08-06T04:44:25;93976.97;;;19.40;77.40
9261;BME280;4667;42.726;23.252;2023-08-06T04:46:53;94013.00;;;19.67;76.51
9261;BME280;4667;42.726;23.252;2023-08-06T04:49:20;93923.03;;;19.26;75.81
9261;BME280;4667;42.726;23.252;2023-08-06T04:51:47;93990.13;;;19.82;76.32
9261;BME280;4667;42.726;23.252;2023-08-06T04:54:14;93987.00;;;19.80;76.14
9261;BME280;4667;42.726;23.252;2023-08-06T04:56:40;93984.78;;;19.94;76.17
9261;BME280;4667;42.726;23.252;2023-08-06T04:59:07;93966.72;;;19.79;75.49
9261;BME280;4667;42.726;23.252;2023-08-06T05:01:34;93980.44;;;19.90;75.38
9261;BME280;4667;42.726;23.252;2023-08-06T05:04:02;93970.97;;;19.92;74.74
9261;BME280;4667;42.726;23.252;2023-08-06T05:06:29;93959.59;;;19.83;74.57
9261;BME280;4667;42.726;23.252;2023-08-06T05:08:56;93970.09;;;19.76;75.00
9261;BME280;4667;42.726;23.252;2023-08-06T05:11:22;93971.50;;;19.86;74.81
9261;BME280;4667;42.726;23.252;2023-08-06T05:13:49;93978.09;;;19.88;74.90
9261;BME280;4667;42.726;23.252;2023-08-06T05:16:16;93981.78;;;19.84;74.26
9261;BME280;4667;42.726;23.252;2023-08-06T05:18:43;93973.75;;;19.84;74.19
9261;BME280;4667;42.726;23.252;2023-08-06T05:21:11;93982.31;;;19.89;74.36
9261;BME280;4667;42.726;23.252;2023-08-06T05:23:37;93988.44;;;19.90;74.55
9261;BME280;4667;42.726;23.252;2023-08-06T05:26:04;93982.41;;;20.05;73.97
9261;BME280;4667;42.726;23.252;2023-08-06T05:28:31;93975.03;;;20.14;73.82
9261;BME280;4667;42.726;23.252;2023-08-06T05:30:58;93959.44;;;20.04;73.49
9261;BME280;4667;42.726;23.252;2023-08-06T05:33:24;93972.56;;;20.21;73.33
9261;BME280;4667;42.726;23.252;2023-08-06T05:35:51;93979.69;;;20.30;72.35
9261;BME280;4667;42.726;23.252;2023-08-06T05:38:19;93984.16;;;20.38;72.90
9261;BME280;4667;42.726;23.252;2023-08-06T05:40:46;93976.28;;;20.57;73.30
9261;BME280;4667;42.726;23.252;2023-08-06T05:43:13;93968.16;;;20.54;72.98
9261;BME280;4667;42.726;23.252;2023-08-06T05:45:44;93894.09;;;20.17;71.53
9261;BME280;4667;42.726;23.252;2023-08-06T05:48:10;93892.53;;;20.44;68.68
9261;BME280;4667;42.726;23.252;2023-08-06T05:50:37;93975.66;;;21.04;68.60
9261;BME280;4667;42.726;23.252;2023-08-06T05:53:04;93946.16;;;20.88;68.45
9261;BME280;4667;42.726;23.252;2023-08-06T05:55:32;93902.78;;;20.55;67.46
9261;BME280;4667;42.726;23.252;2023-08-06T05:57:59;93995.78;;;21.14;67.12
9261;BME280;4667;42.726;23.252;2023-08-06T06:00:26;93994.69;;;21.15;66.66
9261;BME280;4667;42.726;23.252;2023-08-06T06:02:53;94002.09;;;21.34;66.98
9261;BME280;4667;42.726;23.252;2023-08-06T06:05:20;93989.75;;;21.45;65.64
9261;BME280;4667;42.726;23.252;2023-08-06T06:07:46;93938.03;;;21.16;65.43
9261;BME280;4667;42.726;23.252;2023-08-06T06:10:16;93919.13;;;21.25;66.98
9261;BME280;4667;42.726;23.252;2023-08-06T06:12:44;93960.50;;;21.40;65.82
9261;BME280;4667;42.726;23.252;2023-08-06T06:15:11;93993.09;;;21.73;65.75
9261;BME280;4667;42.726;23.252;2023-08-06T06:17:38;93938.59;;;21.38;65.61
9261;BME280;4667;42.726;23.252;2023-08-06T06:20:06;94018.78;;;21.90;65.60
9261;BME280;4667;42.726;23.252;2023-08-06T06:22:33;94014.63;;;21.93;64.20
9261;BME280;4667;42.726;23.252;2023-08-06T06:24:59;94044.50;;;22.07;62.09
9261;BME280;4667;42.726;23.252;2023-08-06T06:27:26;94044.41;;;22.03;62.57
9261;BME280;4667;42.726;23.252;2023-08-06T06:29:54;94048.75;;;22.08;61.92
9261;BME280;4667;42.726;23.252;2023-08-06T06:32:21;94051.44;;;22.08;63.21
9261;BME280;4667;42.726;23.252;2023-08-06T06:34:48;94044.06;;;22.05;64.88
9261;BME280;4667;42.726;23.252;2023-08-06T06:37:15;94056.28;;;22.18;62.96
9261;BME280;4667;42.726;23.252;2023-08-06T06:39:41;94024.34;;;21.97;62.54
9261;BME280;4667;42.726;23.252;2023-08-06T06:42:09;94056.16;;;22.11;61.63
9261;BME280;4667;42.726;23.252;2023-08-06T06:44:36;94064.31;;;22.34;63.39
9261;BME280;4667;42.726;23.252;2023-08-06T06:47:04;94073.41;;;22.45;61.57
9261;BME280;4667;42.726;23.252;2023-08-06T06:49:31;94001.56;;;22.07;61.62
9261;BME280;4667;42.726;23.252;2023-08-06T06:51:58;93988.22;;;22.11;62.02
9261;BME280;4667;42.726;23.252;2023-08-06T06:54:24;94064.88;;;22.59;60.40
9261;BME280;4667;42.726;23.252;2023-08-06T06:56:51;94069.97;;;22.64;61.21
9261;BME280;4667;42.726;23.252;2023-08-06T06:59:18;94079.44;;;22.77;61.13
9261;BME280;4667;42.726;23.252;2023-08-06T07:01:44;93986.56;;;22.06;60.42
9261;BME280;4667;42.726;23.252;2023-08-06T07:04:18;94062.06;;;22.71;61.13
9261;BME280;4667;42.726;23.252;2023-08-06T07:06:45;94089.50;;;22.80;60.83
9261;BME280;4667;42.726;23.252;2023-08-06T07:09:12;93938.91;;;21.84;57.79
9261;BME280;4667;42.726;23.252;2023-08-06T07:11:39;94086.41;;;22.78;56.83
9261;BME280;4667;42.726;23.252;2023-08-06T07:14:08;94045.13;;;22.51;56.67
9261;BME280;4667;42.726;23.252;2023-08-06T07:16:35;94095.31;;;22.82;55.89
9261;BME280;4667;42.726;23.252;2023-08-06T07:19:02;94084.00;;;22.73;56.16
9261;BME280;4667;42.726;23.252;2023-08-06T07:21:31;94088.72;;;22.80;57.00
9261;BME280;4667;42.726;23.252;2023-08-06T07:23:58;94094.72;;;22.89;57.69
9261;BME280;4667;42.726;23.252;2023-08-06T07:26:25;94095.34;;;23.02;57.49
9261;BME280;4667;42.726;23.252;2023-08-06T07:28:52;94101.38;;;22.95;57.03
9261;BME280;4667;42.726;23.252;2023-08-06T07:31:18;94054.50;;;22.77;57.84
9261;BME280;4667;42.726;23.252;2023-08-06T07:33:45;94064.00;;;22.90;57.58
9261;BME280;4667;42.726;23.252;2023-08-06T07:36:13;94097.56;;;23.16;57.35
9261;BME280;4667;42.726;23.252;2023-08-06T07:38:41;94077.38;;;23.06;56.01
9261;BME280;4667;42.726;23.252;2023-08-06T07:41:08;94085.03;;;23.04;55.41
9261;BME280;4667;42.726;23.252;2023-08-06T07:43:35;94008.94;;;22.84;55.88
9261;BME280;4667;42.726;23.252;2023-08-06T07:46:02;94104.47;;;23.55;54.90
9261;BME280;4667;42.726;23.252;2023-08-06T07:48:29;94089.41;;;23.70;54.66
9261;BME280;4667;42.726;23.252;2023-08-06T07:50:59;94059.06;;;23.54;55.62
9261;BME280;4667;42.726;23.252;2023-08-06T07:53:26;94093.69;;;23.75;55.04
9261;BME280;4667;42.726;23.252;2023-08-06T07:55:56;93987.72;;;23.18;54.18
9261;BME280;4667;42.726;23.252;2023-08-06T07:58:27;94088.97;;;23.91;52.62
9261;BME280;4667;42.726;23.252;2023-08-06T08:00:55;94091.59;;;23.88;52.42
9261;BME280;4667;42.726;23.252;2023-08-06T08:03:24;94071.53;;;23.85;54.31
9261;BME280;4667;42.726;23.252;2023-08-06T08:05:54;94075.03;;;23.85;50.73
9261;BME280;4667;42.726;23.252;2023-08-06T08:08:22;94089.22;;;23.82;52.18
9261;BME280;4667;42.726;23.252;2023-08-06T08:10:49;94078.78;;;24.04;51.70
9261;BME280;4667;42.726;23.252;2023-08-06T08:13:17;94076.41;;;23.99;51.41
9261;BME280;4667;42.726;23.252;2023-08-06T08:15:44;94079.72;;;24.15;50.88
9261;BME280;4667;42.726;23.252;2023-08-06T08:18:12;94079.31;;;24.36;51.40
9261;BME280;4667;42.726;23.252;2023-08-06T08:20:39;94072.19;;;24.47;51.24
9261;BME280;4667;42.726;23.252;2023-08-06T08:23:06;94080.75;;;24.56;49.06
9261;BME280;4667;42.726;23.252;2023-08-06T08:25:33;94077.75;;;24.61;49.09
9261;BME280;4667;42.726;23.252;2023-08-06T08:27:59;94042.56;;;24.51;48.65
9261;BME280;4667;42.726;23.252;2023-08-06T08:30:27;94052.91;;;24.75;50.28
9261;BME280;4667;42.726;23.252;2023-08-06T08:32:54;94047.47;;;24.72;48.88
9261;BME280;4667;42.726;23.252;2023-08-06T08:35:21;94004.44;;;24.49;47.46
9261;BME280;4667;42.726;23.252;2023-08-06T08:37:48;94078.59;;;25.26;46.74
9261;BME280;4667;42.726;23.252;2023-08-06T08:40:16;94069.50;;;25.75;46.82
9261;BME280;4667;42.726;23.252;2023-08-06T08:42:42;94009.50;;;25.99;46.25
9261;BME280;4667;42.726;23.252;2023-08-06T08:45:12;94066.25;;;27.16;43.29
9261;BME280;4667;42.726;23.252;2023-08-06T08:47:42;94079.00;;;27.16;43.23
9261;BME280;4667;42.726;23.252;2023-08-06T08:50:10;93999.63;;;26.87;41.85
9261;BME280;4667;42.726;23.252;2023-08-06T08:52:40;94065.31;;;28.28;41.03
9261;BME280;4667;42.726;23.252;2023-08-06T08:55:08;93959.63;;;27.85;39.25
9261;BME280;4667;42.726;23.252;2023-08-06T08:57:35;93919.31;;;28.34;39.53
9261;BME280;4667;42.726;23.252;2023-08-06T09:00:03;94063.06;;;29.50;41.90
9261;BME280;4667;42.726;23.252;2023-08-06T09:02:31;93995.56;;;28.54;38.45
9261;BME280;4667;42.726;23.252;2023-08-06T09:05:01;94047.91;;;29.60;37.13
9261;BME280;4667;42.726;23.252;2023-08-06T09:07:31;94053.38;;;29.56;37.21
9261;BME280;4667;42.726;23.252;2023-08-06T09:10:02;94051.31;;;29.74;38.40
9261;BME280;4667;42.726;23.252;2023-08-06T09:12:30;94026.09;;;30.26;35.83
9261;BME280;4667;42.726;23.252;2023-08-06T09:14:57;94015.66;;;30.62;36.20
9261;BME280;4667;42.726;23.252;2023-08-06T09:17:24;94041.84;;;30.45;35.18
9261;BME280;4667;42.726;23.252;2023-08-06T09:19:51;94023.81;;;30.62;34.63
9261;BME280;4667;42.726;23.252;2023-08-06T09:22:19;94041.16;;;31.13;36.00
9261;BME280;4667;42.726;23.252;2023-08-06T09:24:46;94034.28;;;31.01;34.86
9261;BME280;4667;42.726;23.252;2023-08-06T09:27:13;93962.56;;;30.06;34.16
9261;BME280;4667;42.726;23.252;2023-08-06T09:29:44;93984.31;;;30.85;34.46
9261;BME280;4667;42.726;23.252;2023-08-06T09:32:12;94034.78;;;31.27;32.08
9261;BME280;4667;42.726;23.252;2023-08-06T09:34:41;93934.13;;;30.86;31.38
9261;BME280;4667;42.726;23.252;2023-08-06T09:37:08;93994.31;;;31.29;31.24
9261;BME280;4667;42.726;23.252;2023-08-06T09:39:39;94028.72;;;32.00;32.27
9261;BME280;4667;42.726;23.252;2023-08-06T09:42:06;94014.75;;;31.41;30.81
9261;BME280;4667;42.726;23.252;2023-08-06T09:44:33;93992.41;;;31.80;30.88
9261;BME280;4667;42.726;23.252;2023-08-06T09:47:02;94020.13;;;32.49;31.25
9261;BME280;4667;42.726;23.252;2023-08-06T09:49:41;94017.75;;;32.27;30.92
9261;BME280;4667;42.726;23.252;2023-08-06T09:52:11;94025.88;;;32.07;29.54
9261;BME280;4667;42.726;23.252;2023-08-06T09:54:40;93963.13;;;30.99;30.18
9261;BME280;4667;42.726;23.252;2023-08-06T09:57:07;94023.44;;;30.98;31.25
9261;BME280;4667;42.726;23.252;2023-08-06T09:59:35;94038.53;;;31.37;31.86
9261;BME280;4667;42.726;23.252;2023-08-06T10:02:07;94028.31;;;31.75;30.17
9261;BME280;4667;42.726;23.252;2023-08-06T10:04:39;94029.91;;;31.99;29.61
9261;BME280;4667;42.726;23.252;2023-08-06T10:07:06;94026.56;;;31.88;29.48
9261;BME280;4667;42.726;23.252;2023-08-06T10:09:33;93963.47;;;31.36;29.93
9261;BME280;4667;42.726;23.252;2023-08-06T10:12:01;94043.19;;;31.67;31.20
9261;BME280;4667;42.726;23.252;2023-08-06T10:14:29;94042.31;;;31.46;31.53
9261;BME280;4667;42.726;23.252;2023-08-06T10:16:57;94049.63;;;30.88;33.64
9261;BME280;4667;42.726;23.252;2023-08-06T10:19:25;94042.19;;;30.92;33.85
9261;BME280;4667;42.726;23.252;2023-08-06T10:22:08;94049.88;;;30.60;32.88
9261;BME280;4667;42.726;23.252;2023-08-06T10:24:47;93987.56;;;29.23;35.36
9261;BME280;4667;42.726;23.252;2023-08-06T10:27:19;94051.91;;;29.34;36.16
9261;BME280;4667;42.726;23.252;2023-08-06T10:29:46;94039.63;;;29.00;35.56
9261;BME280;4667;42.726;23.252;2023-08-06T10:32:13;94055.59;;;28.77;36.98
9261;BME280;4667;42.726;23.252;2023-08-06T10:34:58;94047.81;;;28.79;36.61
9261;BME280;4667;42.726;23.252;2023-08-06T10:37:35;94058.34;;;28.31;37.16
9261;BME280;4667;42.726;23.252;2023-08-06T10:40:03;94062.59;;;28.28;37.13
9261;BME280;4667;42.726;23.252;2023-08-06T10:42:31;94066.47;;;28.31;36.47
9261;BME280;4667;42.726;23.252;2023-08-06T10:45:14;94066.47;;;28.52;37.30
9261;BME280;4667;42.726;23.252;2023-08-06T10:47:42;94057.94;;;28.18;35.97
9261;BME280;4667;42.726;23.252;2023-08-06T10:50:11;94071.91;;;28.45;37.69
9261;BME280;4667;42.726;23.252;2023-08-06T10:52:38;94067.97;;;28.71;37.22
9261;BME280;4667;42.726;23.252;2023-08-06T10:55:06;94064.94;;;28.47;35.58
9261;BME280;4667;42.726;23.252;2023-08-06T10:57:34;94066.06;;;28.04;37.66
9261;BME280;4667;42.726;23.252;2023-08-06T11:00:01;94097.44;;;27.97;36.15
9261;BME280;4667;42.726;23.252;2023-08-06T11:02:33;94113.81;;;27.21;40.18
9261;BME280;4667;42.726;23.252;2023-08-06T11:05:05;94054.69;;;26.54;43.29
9261;BME280;4667;42.726;23.252;2023-08-06T11:07:32;94116.78;;;25.99;45.12
9261;BME280;4667;42.726;23.252;2023-08-06T11:10:02;94102.03;;;25.52;48.84
9261;BME280;4667;42.726;23.252;2023-08-06T11:12:29;94109.06;;;25.26;52.06
9261;BME280;4667;42.726;23.252;2023-08-06T11:14:57;93982.59;;;24.01;50.23
9261;BME280;4667;42.726;23.252;2023-08-06T11:17:24;94096.09;;;24.79;50.35
9261;BME280;4667;42.726;23.252;2023-08-06T11:19:51;94107.47;;;24.65;51.12
9261;BME280;4667;42.726;23.252;2023-08-06T11:22:19;94101.50;;;24.52;51.58
9261;BME280;4667;42.726;23.252;2023-08-06T11:24:46;94104.56;;;24.77;53.20
9261;BME280;4667;42.726;23.252;2023-08-06T11:27:13;94095.94;;;24.95;48.43
9261;BME280;4667;42.726;23.252;2023-08-06T11:29:41;94099.91;;;25.04;47.90
9261;BME280;4667;42.726;23.252;2023-08-06T11:32:09;94091.44;;;25.06;46.70
9261;BME280;4667;42.726;23.252;2023-08-06T11:34:37;94098.25;;;25.60;46.24
9261;BME280;4667;42.726;23.252;2023-08-06T11:37:06;94100.19;;;25.97;44.44
9261;BME280;4667;42.726;23.252;2023-08-06T11:39:34;94096.19;;;26.79;42.95
9261;BME280;4667;42.726;23.252;2023-08-06T11:42:03;94046.59;;;27.30;41.61
9261;BME280;4667;42.726;23.252;2023-08-06T11:44:30;94086.63;;;28.47;40.23
9261;BME280;4667;42.726;23.252;2023-08-06T11:46:59;94076.88;;;28.86;43.44
9261;BME280;4667;42.726;23.252;2023-08-06T11:49:41;93968.47;;;28.25;41.22
9261;BME280;4667;42.726;23.252;2023-08-06T11:52:13;94029.78;;;29.39;37.52
9261;BME280;4667;42.726;23.252;2023-08-06T11:54:40;94060.75;;;30.60;37.47
9261;BME280;4667;42.726;23.252;2023-08-06T11:57:07;93992.47;;;30.85;33.15
9261;BME280;4667;42.726;23.252;2023-08-06T11:59:34;94053.19;;;31.77;32.16
9261;BME280;4667;42.726;23.252;2023-08-06T12:02:07;94071.19;;;31.40;32.29
9261;BME280;4667;42.726;23.252;2023-08-06T12:05:00;94069.91;;;30.80;32.17
9261;BME280;4667;42.726;23.252;2023-08-06T12:07:39;94014.75;;;30.35;31.85
9261;BME280;4667;42.726;23.252;2023-08-06T12:10:07;93990.66;;;30.33;33.21
9261;BME280;4667;42.726;23.252;2023-08-06T12:12:34;94003.63;;;30.18;31.52
9261;BME280;4667;42.726;23.252;2023-08-06T12:15:01;93985.69;;;29.80;34.04
9261;BME280;4667;42.726;23.252;2023-08-06T12:17:28;94019.69;;;29.36;33.67
9261;BME280;4667;42.726;23.252;2023-08-06T12:19:54;94049.41;;;29.68;35.00
9261;BME280;4667;42.726;23.252;2023-08-06T12:22:22;94013.78;;;30.11;32.30
9261;BME280;4667;42.726;23.252;2023-08-06T12:24:49;94047.06;;;31.08;30.95
9261;BME280;4667;42.726;23.252;2023-08-06T12:27:16;94031.28;;;30.92;33.35
9261;BME280;4667;42.726;23.252;2023-08-06T12:29:44;94030.09;;;30.97;33.72
9261;BME280;4667;42.726;23.252;2023-08-06T12:32:12;94038.69;;;30.50;34.07
9261;BME280;4667;42.726;23.252;2023-08-06T12:34:40;94002.25;;;29.92;32.30
9261;BME280;4667;42.726;23.252;2023-08-06T12:37:07;94056.22;;;29.24;33.83
9261;BME280;4667;42.726;23.252;2023-08-06T12:39:35;94026.13;;;28.79;34.28
9261;BME280;4667;42.726;23.252;2023-08-06T12:42:04;94040.81;;;28.85;35.13
9261;BME280;4667;42.726;23.252;2023-08-06T12:44:31;93947.63;;;27.93;36.36
9261;BME280;4667;42.726;23.252;2023-08-06T12:46:59;94051.75;;;27.92;36.60
9261;BME280;4667;42.726;23.252;2023-08-06T12:49:25;94054.41;;;27.60;36.77
9261;BME280;4667;42.726;23.252;2023-08-06T12:51:54;94040.78;;;27.32;36.68
9261;BME280;4667;42.726;23.252;2023-08-06T12:54:22;94051.56;;;27.14;38.41
9261;BME280;4667;42.726;23.252;2023-08-06T12:56:50;94031.38;;;27.04;37.14
9261;BME280;4667;42.726;23.252;2023-08-06T12:59:18;94010.03;;;26.78;37.95
9261;BME280;4667;42.726;23.252;2023-08-06T13:01:45;94048.06;;;27.10;38.58
9261;BME280;4667;42.726;23.252;2023-08-06T13:04:12;94053.41;;;26.99;38.25
9261;BME280;4667;42.726;23.252;2023-08-06T13:06:39;94046.94;;;27.21;37.39
9261;BME280;4667;42.726;23.252;2023-08-06T13:09:06;94045.09;;;27.51;38.17
9261;BME280;4667;42.726;23.252;2023-08-06T13:11:44;94056.38;;;27.78;36.46
9261;BME280;4667;42.726;23.252;2023-08-06T13:14:14;93975.06;;;27.35;35.99